Sect Rio Lajas Tiburones, Puerto Rico
Current Conditions -  °F | °C
As of 7:56 AM on Friday 28 Nov 2014 (Local Time) from TJSJ Reporting Station
Few Clouds Few Clouds  
Wind Chill: 76°   Ceiling: Unl
Heat Index: 76°   Visibility: 10mi
Dew Point: 71°   Wind: 0mph
Humidity: 85%   Direction: NA
Pressure: 29.98"   Gusts: NA
Location:  18.4598°N, 66.2592°W
Report Text: TJSJ 281156Z 00000KT 10SM FEW025 24/22 A2998 RMK AO2 SLP151 T02440217 10244 20228 53018
Loading
Personal Weather Stations






























Interactive Weather Map New forecast layout! Learn more

10-Day Weather Forecast

Advertisements
Track Severe Weather on mobile